Portada
METAR-TAF:

METAR-TAF

Aeroports :

Rutherford County Airport (Marchman Field)

Rutherfordton, Carolina del Nord, Estats Units d'Amèrica

latitud: 35-25-42N, longitud: 081-56-06W, altitud: 329 m

Observació

L'informe es va fer fa 29 minuts, a les 00:00 UTC
Vent 6 kt del Sud
Temperatura 26°C
Humitat 51%
Pressió 1016 hPa
Visibilitat: 16.1 km
Núvols disperses a una alçada de 6500 ft
Núvols disperses a una alçada de 7500 ft
Núvols disperses a una alçada de 8500 ft

METAR: KFQD 200000Z AUTO 18006KT 10SM SCT065 SCT075 SCT085 26/15 A3000 RMK AO2

Hora: 20:29 (00:29 UTC)


TAF: manca

Observacions i pronòstics meteorològics de més de 4000 aeroports (METAR i TAF).

Les estacions disponibles són els punts grocs i vermells al mapa.

Posi el ratolí al punt desitjat per veure el nom de l'estació.

Feu clic per veure les observacions i els pronòstics meteorològics.

Per canviar el mapa: feu clic els botons verds amb una creu de color negre per apropar; al botó verd amb un guió per allunyar la imatge; o en les fletxes verdes per a mapes adjacents.


METAR-TAF: